Time;durP1;ratioP1;P1;durP2;ratioP2;P2;SDS_P1;SDS_P2;PMS_P1;PMS_P2;Temp;Humidity;BMP_temperature;BMP_pressure;BME280_temperature;BME280_humidity;BME280_pressure;Samples;Min_cycle;Max_cycle;Signal;HPM_P1;HPM_P2
2021/05/26 00:00:25;;;;;;;0.70;0.50;;;9.70;99.90;;;;;;5011536;28;20234;-79
2021/05/26 00:02:51;;;;;;;0.70;0.50;;;9.80;99.90;;;;;;5016683;28;20224;-78
2021/05/26 00:05:17;;;;;;;0.70;0.50;;;9.80;99.90;;;;;;5018824;28;20525;-79
2021/05/26 00:07:43;;;;;;;0.70;0.50;;;9.80;99.90;;;;;;5033951;28;20235;-80
2021/05/26 00:10:09;;;;;;;0.70;0.50;;;9.80;99.90;;;;;;5012953;28;20210;-79
2021/05/26 00:12:34;;;;;;;0.70;0.50;;;9.80;99.90;;;;;;5018913;28;20226;-76
2021/05/26 00:15:00;;;;;;;0.70;0.50;;;9.80;99.90;;;;;;5020678;28;20438;-79
2021/05/26 00:17:26;;;;;;;0.70;0.50;;;9.80;99.90;;;;;;5036434;28;20206;-78
2021/05/26 00:19:52;;;;;;;0.70;0.50;;;9.80;99.90;;;;;;5018380;28;20266;-78
2021/05/26 00:22:17;;;;;;;0.70;0.50;;;9.80;99.90;;;;;;5030851;28;20202;-77
2021/05/26 00:24:43;;;;;;;0.70;0.50;;;9.80;99.90;;;;;;5012446;28;20504;-78
2021/05/26 00:27:08;;;;;;;0.70;0.50;;;9.80;99.90;;;;;;5013928;28;20231;-78
2021/05/26 00:29:34;;;;;;;0.70;0.50;;;9.90;99.90;;;;;;5014451;28;20616;-78
2021/05/26 00:31:59;;;;;;;0.70;0.50;;;9.80;99.90;;;;;;5029960;28;20531;-78
2021/05/26 00:34:25;;;;;;;0.70;0.50;;;9.80;99.90;;;;;;5017700;28;20629;-78
2021/05/26 00:36:51;;;;;;;0.70;0.50;;;9.90;99.90;;;;;;5030516;28;20203;-79
2021/05/26 00:39:16;;;;;;;0.70;0.50;;;9.90;99.90;;;;;;5015687;28;20176;-78
2021/05/26 00:41:42;;;;;;;0.70;0.50;;;9.90;99.90;;;;;;5015034;28;20206;-78
2021/05/26 00:44:07;;;;;;;0.70;0.50;;;9.90;99.90;;;;;;5014064;28;20185;-78
2021/05/26 00:46:44;;;;;;;0.70;0.50;;;9.90;99.90;;;;;;5015837;28;20217;-80
2021/05/26 00:49:10;;;;;;;0.70;0.50;;;9.90;99.90;;;;;;5011875;28;20207;-78
2021/05/26 00:51:36;;;;;;;0.70;0.50;;;9.90;99.90;;;;;;5016090;28;20431;-78
2021/05/26 00:54:02;;;;;;;0.70;0.50;;;9.90;99.90;;;;;;5030070;28;20481;-79
2021/05/26 00:56:28;;;;;;;0.70;0.50;;;9.90;99.90;;;;;;5029352;28;20530;-79
2021/05/26 00:58:53;;;;;;;0.70;0.50;;;9.90;99.90;;;;;;5014320;28;20463;-78
2021/05/26 01:01:19;;;;;;;0.70;0.50;;;9.80;99.90;;;;;;5012354;28;20446;-78
2021/05/26 01:03:45;;;;;;;0.70;0.50;;;9.80;99.90;;;;;;5014570;28;20191;-78
2021/05/26 01:06:11;;;;;;;0.70;0.50;;;9.90;99.90;;;;;;5032133;28;20204;-79
2021/05/26 01:08:36;;;;;;;0.70;0.50;;;9.90;99.90;;;;;;5017544;28;20415;-78
2021/05/26 01:11:04;;;;;;;0.70;0.50;;;9.90;99.90;;;;;;5015194;28;20562;-78
2021/05/26 01:13:30;;;;;;;0.70;0.50;;;9.90;99.90;;;;;;5002888;28;20254;-78
2021/05/26 01:15:56;;;;;;;0.70;0.50;;;9.90;99.90;;;;;;5031976;28;20420;-79
2021/05/26 01:18:30;;;;;;;0.70;0.50;;;9.90;99.90;;;;;;5015392;28;20439;-79
2021/05/26 01:21:07;;;;;;;0.70;0.50;;;9.90;99.90;;;;;;5014863;28;20607;-78
2021/05/26 01:23:34;;;;;;;0.70;0.50;;;10.00;99.90;;;;;;5010577;28;20528;-78
2021/05/26 01:26:01;;;;;;;0.70;0.50;;;9.90;99.90;;;;;;5030392;28;20526;-78
2021/05/26 01:28:29;;;;;;;0.70;0.50;;;9.90;99.90;;;;;;5012892;28;20431;-78
2021/05/26 01:30:56;;;;;;;0.70;0.50;;;9.90;99.90;;;;;;5014200;28;20412;-78
2021/05/26 01:33:22;;;;;;;0.70;0.50;;;9.90;99.90;;;;;;5013070;28;20471;-78
2021/05/26 01:35:48;;;;;;;0.70;0.50;;;10.00;99.90;;;;;;5013896;28;20438;-78
2021/05/26 01:38:19;;;;;;;0.70;0.50;;;10.00;99.90;;;;;;5012901;28;20435;-79
2021/05/26 01:40:45;;;;;;;0.70;0.50;;;10.00;99.90;;;;;;5012961;28;20179;-78
2021/05/26 01:43:11;;;;;;;0.70;0.50;;;10.00;99.90;;;;;;5014128;28;20820;-78
2021/05/26 01:45:37;;;;;;;0.70;0.50;;;10.10;99.90;;;;;;5012724;28;20509;-78
2021/05/26 01:48:03;;;;;;;0.70;0.50;;;10.10;99.90;;;;;;5014678;28;20944;-80
2021/05/26 01:50:29;;;;;;;0.70;0.50;;;10.00;99.90;;;;;;5029917;28;20782;-79
2021/05/26 01:52:59;;;;;;;0.70;0.50;;;10.00;99.90;;;;;;5012388;28;20434;-78
2021/05/26 01:55:25;;;;;;;0.70;0.50;;;10.00;99.90;;;;;;5029465;28;20176;-78
2021/05/26 01:57:50;;;;;;;0.80;0.70;;;10.00;99.90;;;;;;5027663;28;20790;-78
2021/05/26 02:00:19;;;;;;;0.70;0.50;;;10.00;99.90;;;;;;5013082;28;20443;-78
2021/05/26 02:02:45;;;;;;;0.70;0.50;;;10.10;99.90;;;;;;5012846;28;20542;-79
2021/05/26 02:05:11;;;;;;;0.70;0.50;;;10.00;99.90;;;;;;5030975;28;20474;-78
2021/05/26 02:07:37;;;;;;;0.70;0.50;;;10.00;99.90;;;;;;5013362;28;20448;-78
2021/05/26 02:10:09;;;;;;;0.70;0.50;;;10.10;99.90;;;;;;5012515;28;20415;-78
2021/05/26 02:12:39;;;;;;;0.70;0.50;;;10.10;99.90;;;;;;5040922;28;20434;-78
2021/05/26 02:15:07;;;;;;;0.70;0.50;;;10.00;99.90;;;;;;5026959;28;20449;-78
2021/05/26 02:17:33;;;;;;;0.70;0.50;;;10.00;99.90;;;;;;5023253;28;20576;-78
2021/05/26 02:19:59;;;;;;;0.70;0.50;;;9.90;99.90;;;;;;5013514;28;20437;-78
2021/05/26 02:22:25;;;;;;;0.70;0.50;;;10.00;99.90;;;;;;5013437;28;20565;-79
2021/05/26 02:24:50;;;;;;;0.70;0.50;;;9.90;99.90;;;;;;5014717;28;20180;-78
2021/05/26 02:27:16;;;;;;;0.70;0.50;;;9.90;99.90;;;;;;5029507;28;20423;-78
2021/05/26 02:29:43;;;;;;;0.70;0.50;;;9.90;99.90;;;;;;5011802;28;20526;-78
2021/05/26 02:32:09;;;;;;;0.70;0.50;;;9.90;99.90;;;;;;5027373;28;20183;-77
2021/05/26 02:34:36;;;;;;;0.70;0.50;;;9.80;99.90;;;;;;5014202;28;20425;-79
2021/05/26 02:37:02;;;;;;;0.70;0.50;;;9.70;99.90;;;;;;5011423;28;20458;-79
2021/05/26 02:39:28;;;;;;;0.70;0.50;;;9.70;99.90;;;;;;5011544;28;20438;-78
2021/05/26 02:41:54;;;;;;;0.70;0.50;;;9.70;99.90;;;;;;5011664;28;20968;-78
2021/05/26 02:44:20;;;;;;;0.70;0.50;;;9.70;99.90;;;;;;5010972;28;20176;-78
2021/05/26 02:46:46;;;;;;;0.70;0.50;;;9.70;99.90;;;;;;5011717;28;20204;-78
2021/05/26 02:49:12;;;;;;;0.70;0.50;;;9.70;99.90;;;;;;5011120;28;20847;-78
2021/05/26 02:51:38;;;;;;;0.70;0.50;;;9.70;99.90;;;;;;5029501;28;20179;-78
2021/05/26 02:54:05;;;;;;;0.70;0.50;;;9.70;99.90;;;;;;5013292;28;20427;-78
2021/05/26 02:56:30;;;;;;;0.70;0.50;;;9.70;99.90;;;;;;5013524;28;20427;-77
2021/05/26 02:58:56;;;;;;;0.70;0.50;;;9.70;99.90;;;;;;5011932;28;20422;-78
2021/05/26 03:01:22;;;;;;;0.70;0.50;;;9.70;99.90;;;;;;5025655;28;20549;-78
2021/05/26 03:03:48;;;;;;;0.70;0.50;;;9.70;99.90;;;;;;5011462;28;20204;-78
2021/05/26 03:06:14;;;;;;;0.70;0.50;;;9.70;99.90;;;;;;5011774;28;20599;-78
2021/05/26 03:08:39;;;;;;;0.70;0.50;;;9.80;99.90;;;;;;5011962;28;20466;-78
2021/05/26 03:11:05;;;;;;;0.70;0.50;;;9.70;99.90;;;;;;5010467;28;20831;-78
2021/05/26 03:13:31;;;;;;;0.70;0.50;;;9.80;99.90;;;;;;5009915;28;20179;-77
2021/05/26 03:15:57;;;;;;;0.70;0.50;;;9.80;99.90;;;;;;5011777;28;20188;-78
2021/05/26 03:18:23;;;;;;;0.70;0.50;;;9.70;99.90;;;;;;5012655;28;20179;-78
2021/05/26 03:20:50;;;;;;;0.70;0.60;;;9.70;99.90;;;;;;5009211;28;20180;-78
2021/05/26 03:23:16;;;;;;;0.70;0.50;;;9.80;99.90;;;;;;5026934;28;20478;-77
2021/05/26 03:25:42;;;;;;;0.70;0.50;;;10.00;99.90;;;;;;5012088;28;20411;-77
2021/05/26 03:28:08;;;;;;;0.70;0.50;;;10.10;99.90;;;;;;5011450;28;20442;-78
2021/05/26 03:30:34;;;;;;;0.70;0.50;;;10.10;99.90;;;;;;5011767;28;20406;-78
2021/05/26 03:33:04;;;;;;;0.70;0.50;;;10.10;99.90;;;;;;5007942;28;20719;-77
2021/05/26 03:35:32;;;;;;;0.90;0.70;;;10.10;99.90;;;;;;5010022;28;21039;-77
2021/05/26 03:37:58;;;;;;;0.70;0.50;;;10.10;99.90;;;;;;5011993;28;20482;-77
2021/05/26 03:40:23;;;;;;;0.90;0.73;;;10.10;99.90;;;;;;5025447;28;20892;-77
2021/05/26 03:42:49;;;;;;;0.70;0.50;;;9.90;99.90;;;;;;5009924;28;20219;-77
2021/05/26 03:45:15;;;;;;;0.70;0.50;;;9.90;99.90;;;;;;4994363;28;20173;-78
2021/05/26 03:47:41;;;;;;;0.70;0.50;;;9.80;99.90;;;;;;5019499;28;20200;-78
2021/05/26 03:50:12;;;;;;;0.70;0.50;;;9.70;99.90;;;;;;5011634;28;20491;-77
2021/05/26 03:52:48;;;;;;;0.70;0.50;;;9.60;99.90;;;;;;5009446;28;20554;-77
2021/05/26 03:55:16;;;;;;;0.70;0.50;;;9.60;99.90;;;;;;5011884;28;20438;-77
2021/05/26 03:57:42;;;;;;;0.70;0.50;;;9.60;99.90;;;;;;5013564;28;20463;-77
2021/05/26 04:00:09;;;;;;;0.80;0.60;;;9.70;99.90;;;;;;5014509;28;20473;-77
2021/05/26 04:02:35;;;;;;;0.70;0.50;;;9.70;99.90;;;;;;5013099;28;20199;-77
2021/05/26 04:05:02;;;;;;;0.70;0.50;;;9.60;99.90;;;;;;5014360;28;20520;-77
2021/05/26 04:07:27;;;;;;;0.70;0.50;;;9.80;99.90;;;;;;5014050;28;20451;-77
2021/05/26 04:09:53;;;;;;;0.70;0.40;;;9.90;99.90;;;;;;5014865;28;20802;-77
2021/05/26 04:12:18;;;;;;;0.70;0.50;;;9.90;99.90;;;;;;5014802;28;20257;-77
2021/05/26 04:14:44;;;;;;;0.70;0.50;;;10.00;99.90;;;;;;5013291;28;20188;-77
2021/05/26 04:17:10;;;;;;;0.70;0.50;;;10.00;99.90;;;;;;5013409;28;20200;-78
2021/05/26 04:19:35;;;;;;;0.70;0.50;;;10.10;99.90;;;;;;5012720;28;20188;-78
2021/05/26 04:22:01;;;;;;;0.70;0.50;;;10.20;99.90;;;;;;5013547;28;20578;-78
2021/05/26 04:24:26;;;;;;;0.70;0.50;;;10.30;99.90;;;;;;5014739;28;20522;-77
2021/05/26 04:26:52;;;;;;;0.80;0.70;;;10.20;99.90;;;;;;5030480;28;20669;-78
2021/05/26 04:29:19;;;;;;;0.70;0.50;;;10.20;99.90;;;;;;5013191;28;20176;-78
2021/05/26 04:31:45;;;;;;;0.70;0.50;;;10.20;99.90;;;;;;5015439;28;20164;-78
2021/05/26 04:34:11;;;;;;;0.70;0.50;;;10.20;99.90;;;;;;5013416;28;20430;-77
2021/05/26 04:36:37;;;;;;;0.70;0.50;;;10.30;99.90;;;;;;5029107;28;20455;-78
2021/05/26 04:39:02;;;;;;;0.70;0.50;;;10.40;99.90;;;;;;5013850;28;20666;-78
2021/05/26 04:41:28;;;;;;;0.70;0.50;;;10.40;99.90;;;;;;5015452;28;20223;-78
2021/05/26 04:43:54;;;;;;;0.70;0.50;;;10.50;99.90;;;;;;5018186;28;20753;-77
2021/05/26 04:46:19;;;;;;;0.70;0.50;;;10.50;99.90;;;;;;5025738;28;20226;-78
2021/05/26 04:48:45;;;;;;;0.70;0.50;;;10.50;99.90;;;;;;5027843;28;20172;-78
2021/05/26 04:51:10;;;;;;;0.70;0.50;;;10.50;99.90;;;;;;5050266;28;20171;-78
2021/05/26 04:53:36;;;;;;;0.70;0.50;;;10.60;99.90;;;;;;5028653;28;20184;-78
2021/05/26 04:56:01;;;;;;;0.70;0.50;;;10.80;99.90;;;;;;5033479;28;20183;-78
2021/05/26 04:58:27;;;;;;;0.70;0.50;;;10.80;99.90;;;;;;5031535;28;20199;-78
2021/05/26 05:00:52;;;;;;;0.70;0.50;;;11.00;99.90;;;;;;5034007;28;20531;-78
2021/05/26 05:03:18;;;;;;;0.80;0.70;;;11.10;99.90;;;;;;5022007;28;20218;-78
2021/05/26 05:05:43;;;;;;;0.70;0.50;;;11.10;99.90;;;;;;5018313;28;20184;-78
2021/05/26 05:08:09;;;;;;;0.70;0.50;;;11.10;99.90;;;;;;5014921;28;20224;-78
2021/05/26 05:10:35;;;;;;;0.70;0.50;;;11.10;99.90;;;;;;5013834;28;20176;-78
2021/05/26 05:13:01;;;;;;;2.30;0.90;;;11.10;99.90;;;;;;5007650;28;20470;-78
2021/05/26 05:15:27;;;;;;;0.70;0.50;;;11.20;99.90;;;;;;5011860;28;20546;-78
2021/05/26 05:17:53;;;;;;;0.70;0.50;;;11.40;99.90;;;;;;5013765;28;20524;-78
2021/05/26 05:20:20;;;;;;;0.70;0.50;;;11.60;99.90;;;;;;5028271;28;20439;-78
2021/05/26 05:22:51;;;;;;;0.70;0.50;;;11.40;99.90;;;;;;5010059;28;20214;-78
2021/05/26 05:25:17;;;;;;;0.70;0.50;;;11.50;99.90;;;;;;5042983;28;20784;-78
2021/05/26 05:27:43;;;;;;;0.70;0.50;;;11.60;99.90;;;;;;5031105;28;20500;-78
2021/05/26 05:30:10;;;;;;;0.70;0.50;;;11.60;99.90;;;;;;5049518;28;20172;-78
2021/05/26 05:32:36;;;;;;;0.70;0.50;;;11.70;99.90;;;;;;5032479;28;20419;-78
2021/05/26 05:35:02;;;;;;;0.70;0.50;;;11.70;99.90;;;;;;5034764;28;20441;-78
2021/05/26 05:37:28;;;;;;;0.70;0.50;;;11.70;99.90;;;;;;5045867;28;20535;-78
2021/05/26 05:39:53;;;;;;;0.70;0.50;;;11.60;99.90;;;;;;5010590;28;20514;-78
2021/05/26 05:42:19;;;;;;;0.70;0.50;;;11.70;99.90;;;;;;5012669;28;20196;-78
2021/05/26 05:44:46;;;;;;;0.70;0.50;;;11.80;99.90;;;;;;5029137;28;20523;-78
2021/05/26 05:47:12;;;;;;;0.70;0.50;;;12.00;99.90;;;;;;5029367;28;20199;-78
2021/05/26 05:49:37;;;;;;;0.70;0.50;;;12.10;99.90;;;;;;5013019;28;20439;-78
2021/05/26 05:52:03;;;;;;;0.70;0.50;;;12.10;99.90;;;;;;5011854;28;20958;-79
2021/05/26 05:54:29;;;;;;;0.70;0.50;;;11.80;99.90;;;;;;5013867;28;20173;-78
2021/05/26 05:56:54;;;;;;;0.70;0.50;;;12.00;99.90;;;;;;5013129;28;20513;-78
2021/05/26 05:59:20;;;;;;;0.70;0.50;;;12.00;99.90;;;;;;5013010;28;20183;-78
2021/05/26 06:01:46;;;;;;;0.93;0.80;;;12.00;99.90;;;;;;5027900;28;20191;-79
2021/05/26 06:04:11;;;;;;;0.70;0.50;;;11.80;99.90;;;;;;5027325;28;20193;-79
2021/05/26 06:06:37;;;;;;;0.70;0.50;;;11.70;99.90;;;;;;5013871;28;20681;-79
2021/05/26 06:09:03;;;;;;;0.70;0.50;;;11.80;99.90;;;;;;5011363;28;20180;-78
2021/05/26 06:11:29;;;;;;;0.70;0.50;;;11.90;99.90;;;;;;5012230;28;20217;-78
2021/05/26 06:13:54;;;;;;;0.70;0.50;;;12.00;99.90;;;;;;5014000;28;20513;-78
2021/05/26 06:16:20;;;;;;;0.70;0.50;;;12.00;99.90;;;;;;5013845;28;20192;-78
2021/05/26 06:18:45;;;;;;;0.70;0.50;;;12.00;99.90;;;;;;5026661;28;20206;-78
2021/05/26 06:21:11;;;;;;;0.70;0.50;;;12.00;99.90;;;;;;5013802;28;20181;-78
2021/05/26 06:23:37;;;;;;;0.70;0.50;;;12.00;99.90;;;;;;5006809;28;20215;-79
2021/05/26 06:26:03;;;;;;;0.70;0.50;;;12.00;99.90;;;;;;5012248;28;20172;-79
2021/05/26 06:28:28;;;;;;;0.70;0.50;;;12.10;99.90;;;;;;5012434;28;20180;-78
2021/05/26 06:30:57;;;;;;;0.70;0.50;;;12.20;99.90;;;;;;5011529;28;20433;-78
2021/05/26 06:33:23;;;;;;;0.70;0.50;;;12.20;99.90;;;;;;5013435;28;20172;-78
2021/05/26 06:35:48;;;;;;;0.70;0.50;;;11.90;99.90;;;;;;5013258;28;20493;-79
2021/05/26 06:38:14;;;;;;;0.70;0.50;;;12.00;99.90;;;;;;5026136;28;20434;-78
2021/05/26 06:40:40;;;;;;;0.70;0.50;;;12.10;99.90;;;;;;5013615;28;20168;-79
2021/05/26 06:43:05;;;;;;;0.70;0.50;;;12.00;99.90;;;;;;5027428;28;20676;-78
2021/05/26 06:45:31;;;;;;;0.70;0.50;;;11.90;99.90;;;;;;5012404;28;20728;-78
2021/05/26 06:47:56;;;;;;;0.70;0.50;;;11.80;99.90;;;;;;5011601;28;20626;-78
2021/05/26 06:50:22;;;;;;;0.70;0.50;;;11.90;99.90;;;;;;5012837;28;20237;-78
2021/05/26 06:52:47;;;;;;;0.70;0.50;;;12.00;99.90;;;;;;5011967;28;20175;-78
2021/05/26 06:55:13;;;;;;;0.70;0.50;;;11.80;99.90;;;;;;5011020;28;20526;-78
2021/05/26 06:57:38;;;;;;;0.70;0.50;;;11.90;99.90;;;;;;5026306;28;20200;-78
2021/05/26 07:00:06;;;;;;;0.70;0.50;;;12.10;99.90;;;;;;5012420;28;20176;-79
2021/05/26 07:02:31;;;;;;;0.70;0.50;;;12.00;99.90;;;;;;5011771;28;20196;-78
2021/05/26 07:04:57;;;;;;;0.70;0.50;;;12.20;99.90;;;;;;5026776;28;20441;-78
2021/05/26 07:07:23;;;;;;;0.70;0.50;;;12.20;99.90;;;;;;5028156;28;20880;-79
2021/05/26 07:09:48;;;;;;;0.70;0.50;;;12.40;99.90;;;;;;5025795;28;20485;-79
2021/05/26 07:12:14;;;;;;;1.20;1.10;;;12.30;99.90;;;;;;5027306;28;20230;-79
2021/05/26 07:14:41;;;;;;;0.70;0.50;;;12.50;99.90;;;;;;5011539;28;20176;-79
2021/05/26 07:17:06;;;;;;;0.70;0.50;;;12.70;99.90;;;;;;5011062;28;20681;-78
2021/05/26 07:19:32;;;;;;;0.70;0.50;;;12.70;99.90;;;;;;5012729;28;20450;-78
2021/05/26 07:21:57;;;;;;;0.70;0.50;;;12.60;99.90;;;;;;5027882;28;20286;-78
2021/05/26 07:24:23;;;;;;;0.70;0.50;;;12.80;99.90;;;;;;5007419;28;20196;-79
2021/05/26 07:26:49;;;;;;;0.70;0.50;;;13.00;99.90;;;;;;5005876;28;20192;-79
2021/05/26 07:29:14;;;;;;;0.70;0.50;;;13.00;99.90;;;;;;5024479;28;20177;-78
2021/05/26 07:31:41;;;;;;;0.70;0.50;;;13.20;99.90;;;;;;5015511;28;20242;-79
2021/05/26 07:34:07;;;;;;;0.70;0.50;;;13.10;99.90;;;;;;5016305;28;20172;-78
2021/05/26 07:36:33;;;;;;;0.70;0.50;;;13.10;99.90;;;;;;5019019;28;20870;-79
2021/05/26 07:38:59;;;;;;;0.93;0.70;;;13.00;99.90;;;;;;5008301;28;20454;-78
2021/05/26 07:41:25;;;;;;;0.70;0.50;;;13.10;99.90;;;;;;5029933;28;20176;-78
2021/05/26 07:43:51;;;;;;;0.70;0.50;;;13.20;99.90;;;;;;5030686;28;20454;-77
2021/05/26 07:46:16;;;;;;;0.70;0.50;;;13.20;99.90;;;;;;5033199;28;20724;-79
2021/05/26 07:48:43;;;;;;;0.70;0.50;;;13.00;99.90;;;;;;5032458;28;20222;-79
2021/05/26 07:51:09;;;;;;;0.70;0.50;;;12.90;99.90;;;;;;5017141;28;20179;-79
2021/05/26 07:53:35;;;;;;;0.70;0.50;;;12.80;99.90;;;;;;5034375;28;20434;-78
2021/05/26 07:56:02;;;;;;;0.70;0.50;;;13.10;99.90;;;;;;5016566;28;20443;-78
2021/05/26 07:58:29;;;;;;;0.70;0.50;;;13.00;99.90;;;;;;5029664;28;20657;-78
2021/05/26 08:01:00;;;;;;;0.70;0.50;;;13.10;99.90;;;;;;5014846;28;21159;-77
2021/05/26 08:03:26;;;;;;;0.70;0.50;;;13.00;99.90;;;;;;5015344;28;20860;-78
2021/05/26 08:05:51;;;;;;;0.70;0.50;;;13.10;99.90;;;;;;5018330;28;20420;-78
2021/05/26 08:08:17;;;;;;;0.70;0.50;;;13.30;99.90;;;;;;5030679;28;20653;-77
2021/05/26 08:10:42;;;;;;;0.70;0.50;;;13.20;99.90;;;;;;5016326;28;20233;-79
2021/05/26 08:13:09;;;;;;;0.70;0.50;;;12.80;99.90;;;;;;5013584;28;20283;-78
2021/05/26 08:15:35;;;;;;;0.70;0.50;;;12.70;99.90;;;;;;5032107;28;20677;-78
2021/05/26 08:18:01;;;;;;;0.70;0.50;;;12.60;99.90;;;;;;5030632;28;20493;-79
2021/05/26 08:20:27;;;;;;;0.70;0.50;;;12.80;99.90;;;;;;5014577;28;20485;-79
2021/05/26 08:22:53;;;;;;;0.70;0.50;;;13.00;99.90;;;;;;5031132;28;20291;-79
2021/05/26 08:25:18;;;;;;;0.70;0.50;;;12.90;99.90;;;;;;5017242;28;20398;-79
2021/05/26 08:27:44;;;;;;;0.70;0.50;;;12.80;99.90;;;;;;5012736;28;20196;-79
2021/05/26 08:30:10;;;;;;;0.70;0.50;;;12.90;99.90;;;;;;5010042;28;20172;-78
2021/05/26 08:32:36;;;;;;;0.70;0.50;;;13.00;99.90;;;;;;5017095;28;20204;-78
2021/05/26 08:35:02;;;;;;;0.70;0.50;;;13.00;99.90;;;;;;5032722;28;20184;-78
2021/05/26 08:37:27;;;;;;;0.70;0.50;;;13.10;99.90;;;;;;5032174;28;20192;-78
2021/05/26 08:39:53;;;;;;;0.70;0.50;;;13.20;99.90;;;;;;5030720;28;20445;-78
2021/05/26 08:42:18;;;;;;;0.70;0.50;;;13.30;99.90;;;;;;5015276;28;20706;-78
2021/05/26 08:44:45;;;;;;;0.70;0.50;;;13.50;99.90;;;;;;5030838;28;20187;-78
2021/05/26 08:47:16;;;;;;;0.70;0.50;;;13.50;99.90;;;;;;5030454;28;20204;-78
2021/05/26 08:49:44;;;;;;;0.70;0.50;;;13.60;99.90;;;;;;5030771;28;21166;-78
2021/05/26 08:52:10;;;;;;;0.70;0.50;;;13.60;99.90;;;;;;5031122;28;20949;-78
2021/05/26 08:54:36;;;;;;;0.70;0.50;;;13.70;99.90;;;;;;5017916;28;20936;-78
2021/05/26 08:57:01;;;;;;;0.70;0.50;;;13.70;99.90;;;;;;5032303;28;20447;-78
2021/05/26 08:59:27;;;;;;;0.70;0.50;;;13.90;99.90;;;;;;5032493;28;20263;-78
2021/05/26 09:01:54;;;;;;;0.70;0.50;;;14.00;99.90;;;;;;5017526;28;20184;-79
2021/05/26 09:04:29;;;;;;;0.70;0.50;;;13.90;99.90;;;;;;5020512;28;20175;-78
2021/05/26 09:07:14;;;;;;;0.70;0.50;;;13.80;99.90;;;;;;5016194;28;20441;-80
2021/05/26 09:09:52;;;;;;;0.70;0.50;;;13.90;99.90;;;;;;5031906;28;20423;-78
2021/05/26 09:12:26;;;;;;;0.70;0.50;;;14.40;99.90;;;;;;5031669;28;20418;-79
2021/05/26 09:14:54;;;;;;;0.70;0.50;;;14.50;99.90;;;;;;5031963;28;20434;-79
2021/05/26 09:17:30;;;;;;;0.70;0.50;;;14.80;99.90;;;;;;5031352;28;20454;-79
2021/05/26 09:20:31;;;;;;;0.70;0.50;;;15.00;99.90;;;;;;5011577;28;20797;-79
2021/05/26 09:23:36;;;;;;;0.70;0.50;;;15.20;99.90;;;;;;5008042;28;20467;-79
2021/05/26 09:26:23;;;;;;;0.70;0.50;;;15.10;99.90;;;;;;4997831;28;20602;-78
2021/05/26 09:28:48;;;;;;;0.70;0.50;;;14.90;99.90;;;;;;5024743;28;20537;-79
2021/05/26 09:31:14;;;;;;;0.70;0.50;;;15.00;99.90;;;;;;5016517;28;20447;-79
2021/05/26 09:33:46;;;;;;;0.70;0.50;;;14.80;99.90;;;;;;5017020;28;20172;-79
2021/05/26 09:36:12;;;;;;;0.70;0.50;;;14.90;99.90;;;;;;5028810;28;20496;-78
2021/05/26 09:38:38;;;;;;;0.70;0.50;;;14.90;99.90;;;;;;4996676;28;20416;-78
2021/05/26 09:41:20;;;;;;;0.70;0.50;;;14.90;99.90;;;;;;4997008;28;20176;-79
2021/05/26 09:43:48;;;;;;;0.70;0.50;;;14.80;99.90;;;;;;5027565;28;20474;-79
2021/05/26 09:46:22;;;;;;;0.70;0.50;;;14.80;99.90;;;;;;5010517;28;20602;-79
2021/05/26 09:49:00;;;;;;;0.70;0.50;;;14.80;99.90;;;;;;5010315;28;20419;-78
2021/05/26 09:51:27;;;;;;;0.70;0.50;;;14.90;99.90;;;;;;5015041;28;20470;-78
2021/05/26 09:54:13;;;;;;;1.40;1.30;;;14.90;99.90;;;;;;5017516;28;20415;-80
2021/05/26 09:56:40;;;;;;;0.70;0.50;;;14.90;99.90;;;;;;5031730;28;20577;-80
2021/05/26 09:59:06;;;;;;;0.70;0.50;;;14.90;99.90;;;;;;5033105;28;20414;-80
2021/05/26 10:01:33;;;;;;;0.70;0.50;;;14.70;99.90;;;;;;5052429;28;20414;-80
2021/05/26 10:04:00;;;;;;;0.70;0.50;;;14.60;99.90;;;;;;5030435;28;20469;-79
2021/05/26 10:06:28;;;;;;;0.70;0.50;;;14.40;99.90;;;;;;5035071;28;20434;-80
2021/05/26 10:08:56;;;;;;;0.70;0.50;;;14.30;99.90;;;;;;5043215;28;20416;-79
2021/05/26 10:11:25;;;;;;;0.70;0.50;;;14.40;99.90;;;;;;5031746;28;20427;-79
2021/05/26 10:13:52;;;;;;;0.70;0.50;;;14.40;99.90;;;;;;5032997;28;20951;-79
2021/05/26 10:16:22;;;;;;;0.70;0.50;;;14.20;99.90;;;;;;5031180;28;20431;-79
2021/05/26 10:18:49;;;;;;;0.70;0.50;;;14.30;99.90;;;;;;5031835;28;20868;-79
2021/05/26 10:21:24;;;;;;;0.70;0.50;;;14.00;99.90;;;;;;5032372;28;20415;-79
2021/05/26 10:23:56;;;;;;;0.70;0.50;;;13.70;99.90;;;;;;5015561;28;20450;-78
2021/05/26 10:26:48;;;;;;;0.70;0.50;;;13.40;99.90;;;;;;5029134;28;20442;-78
2021/05/26 10:29:26;;;;;;;0.70;0.50;;;13.60;99.90;;;;;;5019142;28;20944;-78
2021/05/26 10:31:52;;;;;;;0.70;0.50;;;13.70;99.90;;;;;;5015087;28;20411;-78
2021/05/26 10:34:17;;;;;;;0.70;0.50;;;13.80;99.90;;;;;;5015918;28;20434;-79
2021/05/26 10:37:03;;;;;;;0.70;0.50;;;13.60;99.90;;;;;;5022146;28;20192;-78
2021/05/26 10:39:31;;;;;;;0.70;0.50;;;13.60;99.90;;;;;;5014994;28;20172;-79
2021/05/26 10:41:58;;;;;;;0.70;0.50;;;13.50;99.90;;;;;;4999258;28;20415;-78
2021/05/26 10:45:09;;;;;;;0.70;0.50;;;13.60;99.90;;;;;;5009626;28;20778;-79
2021/05/26 10:47:38;;;;;;;0.70;0.50;;;13.90;99.90;;;;;;5030564;28;20503;-79
2021/05/26 10:50:14;;;;;;;0.70;0.50;;;13.60;99.90;;;;;;5013687;28;20423;-79
2021/05/26 10:52:55;;;;;;;0.70;0.50;;;13.70;99.90;;;;;;5031472;28;20431;-79
2021/05/26 10:55:37;;;;;;;0.70;0.50;;;13.70;99.90;;;;;;5026673;28;20762;-79
2021/05/26 10:58:20;;;;;;;0.70;0.50;;;13.90;99.90;;;;;;5031079;28;20971;-79
2021/05/26 11:00:55;;;;;;;0.70;0.50;;;13.90;99.90;;;;;;5020108;28;20830;-78
2021/05/26 11:03:34;;;;;;;0.70;0.50;;;13.80;99.90;;;;;;5041286;28;20537;-78
2021/05/26 11:06:18;;;;;;;0.70;0.50;;;13.90;99.90;;;;;;5029631;28;20788;-80
2021/05/26 11:08:55;;;;;;;0.70;0.50;;;13.80;99.90;;;;;;5018274;28;20422;-80
2021/05/26 11:11:27;;;;;;;0.70;0.50;;;13.80;99.90;;;;;;5022412;28;20514;-77
2021/05/26 11:14:14;;;;;;;0.70;0.50;;;13.80;99.90;;;;;;5027624;28;20423;-78
2021/05/26 11:16:55;;;;;;;0.70;0.50;;;13.80;99.90;;;;;;5018699;28;20958;-77
2021/05/26 11:19:26;;;;;;;0.70;0.50;;;13.70;99.90;;;;;;5024720;28;20427;-77
2021/05/26 11:22:01;;;;;;;0.70;0.50;;;13.80;99.90;;;;;;5012392;28;20443;-79
2021/05/26 11:24:32;;;;;;;0.70;0.50;;;13.80;99.90;;;;;;5014361;28;20425;-78
2021/05/26 11:26:59;;;;;;;0.70;0.50;;;13.80;99.90;;;;;;5006682;28;20445;-78
2021/05/26 11:29:32;;;;;;;0.70;0.50;;;13.70;99.90;;;;;;5026897;28;20415;-79
2021/05/26 11:32:08;;;;;;;0.70;0.50;;;13.70;99.90;;;;;;5015945;28;20427;-77
2021/05/26 11:34:36;;;;;;;0.70;0.50;;;13.60;99.90;;;;;;5017137;28;20413;-79
2021/05/26 11:37:02;;;;;;;0.70;0.50;;;13.60;99.90;;;;;;5018880;28;20900;-79
2021/05/26 11:39:31;;;;;;;0.70;0.50;;;13.70;99.90;;;;;;5013658;28;20415;-78
2021/05/26 11:42:13;;;;;;;0.70;0.50;;;13.60;99.90;;;;;;5029276;28;20462;-78
2021/05/26 11:44:41;;;;;;;0.70;0.50;;;13.70;99.90;;;;;;5031164;28;20415;-79
2021/05/26 11:47:07;;;;;;;0.70;0.57;;;13.80;99.90;;;;;;5014343;28;20481;-78
2021/05/26 11:49:35;;;;;;;0.70;0.50;;;13.50;99.90;;;;;;5015140;28;20494;-79
2021/05/26 11:52:03;;;;;;;0.70;0.50;;;13.50;99.90;;;;;;5031352;28;20804;-79
2021/05/26 11:54:28;;;;;;;0.70;0.50;;;13.50;99.90;;;;;;5029726;28;20412;-79
2021/05/26 11:56:59;;;;;;;1.07;0.97;;;13.40;99.90;;;;;;5029911;28;20450;-78
2021/05/26 11:59:26;;;;;;;0.70;0.50;;;13.60;99.90;;;;;;5017602;28;20567;-80
2021/05/26 12:01:51;;;;;;;0.70;0.50;;;13.70;99.90;;;;;;5015785;28;20406;-79
2021/05/26 12:04:19;;;;;;;0.70;0.50;;;13.90;99.90;;;;;;5029764;28;20473;-80
2021/05/26 12:06:44;;;;;;;0.70;0.50;;;14.00;99.90;;;;;;5029749;28;20708;-80
2021/05/26 12:09:24;;;;;;;0.70;0.50;;;14.10;99.90;;;;;;5014278;28;20423;-80
2021/05/26 12:11:50;;;;;;;0.70;0.50;;;14.30;99.90;;;;;;5029612;28;20168;-79
2021/05/26 12:14:25;;;;;;;0.70;0.50;;;14.80;99.90;;;;;;5014334;28;20457;-79
2021/05/26 12:16:52;;;;;;;0.70;0.50;;;15.40;99.90;;;;;;5016363;28;20665;-79
2021/05/26 12:19:18;;;;;;;0.70;0.70;;;16.00;99.90;;;;;;5033075;28;20407;-79
2021/05/26 12:21:46;;;;;;;0.70;0.50;;;16.30;99.90;;;;;;5018053;28;20406;-79
2021/05/26 12:24:14;;;;;;;0.80;0.70;;;16.70;99.90;;;;;;5018592;28;20180;-80
2021/05/26 12:26:46;;;;;;;0.70;0.50;;;17.00;99.90;;;;;;5017963;28;20435;-79
2021/05/26 12:29:12;;;;;;;0.70;0.50;;;16.90;99.90;;;;;;5017992;28;20399;-79
2021/05/26 12:31:58;;;;;;;0.70;0.50;;;16.90;99.90;;;;;;5017510;28;20482;-79
2021/05/26 12:34:27;;;;;;;1.47;1.37;;;16.50;99.90;;;;;;5018264;28;20164;-80
2021/05/26 12:36:53;;;;;;;0.70;0.50;;;16.40;99.90;;;;;;5017789;28;20960;-80
2021/05/26 12:39:20;;;;;;;0.70;0.50;;;16.60;99.90;;;;;;5016029;28;20423;-80
2021/05/26 12:41:47;;;;;;;0.70;0.50;;;16.60;99.90;;;;;;5033215;28;20422;-79
2021/05/26 12:44:13;;;;;;;0.70;0.50;;;16.90;99.90;;;;;;5032648;28;20435;-80
2021/05/26 12:46:44;;;;;;;0.70;0.50;;;17.00;99.90;;;;;;5018434;28;20458;-79
2021/05/26 12:49:33;;;;;;;0.70;0.50;;;16.70;99.90;;;;;;5019235;28;20190;-80
2021/05/26 12:52:26;;;;;;;0.70;0.50;;;16.80;99.90;;;;;;5034583;28;20936;-79
2021/05/26 12:54:51;;;;;;;0.70;0.50;;;16.60;99.90;;;;;;5010730;28;20433;-80